Sds Green — ICOK — position and weather

sailwx.info

Track history (hours):
 
Tides and Currents Weather Stations Pressure Air Temp Water Temp Dewpoint Dewpoint Depression Visibility Wind Speed Wind Dir Waves Ship Positions

Sds Green

Last reported at 2016-Jul-24 00:33 UTC. Time now 2016-Jul-24 01:03 UTC.
Position N 39°38' E 014°12'.

Length 108 m; draft 7.1 m.

Type: Cargo ship. MMSI: 247292200.

Date/timePositionNaut miles runAvg speedWind from/ knotsBaromVisibWave heightAir tempDewpointWater temp
2016-Jul-24 00:33N 39°38' E 014°12'1110.9
2016-Jul-23 23:33N 39°29' E 014°22'2210.9
2016-Jul-23 21:32N 39°13' E 014°40'3210.8
2016-Jul-23 18:33N 38°48' E 015°07'1110.8
2016-Jul-23 17:33N 38°40' E 015°16'1110.8
2016-Jul-23 16:33N 38°32' E 015°25'1110.7
2016-Jul-23 15:33N 38°24' E 015°34'1010.0
2016-Jul-23 14:33N 38°16' E 015°41'9 9.3
2016-Jul-23 13:33N 38°07' E 015°36'1310.3
2016-Jul-23 12:20N 37°55' E 015°41'  
2016-Jul-18 12:20N 37°52' E 015°59'910.9
2016-Jul-18 11:32N 37°52' E 015°48'1010.7
2016-Jul-18 10:33N 37°58' E 015°37'1313.2
2016-Jul-18 09:33N 38°11' E 015°36'8 8.5
2016-Jul-18 08:33N 38°20' E 015°34'1312.6
2016-Jul-18 07:33N 38°20' E 015°18'1312.5
2016-Jul-18 06:33N 38°19' E 015°02'1312.4
2016-Jul-18 05:31N 38°19' E 014°46'3511.8
2016-Jul-18 02:33N 38°19' E 014°01'1211.7
2016-Jul-18 01:33N 38°19' E 013°46'1111.4
2016-Jul-18 00:33N 38°19' E 013°32'1211.7
2016-Jul-17 23:33N 38°19' E 013°17'1211.8
2016-Jul-17 22:33N 38°19' E 013°02'1211.9
2016-Jul-17 21:33N 38°19' E 012°46'9411.7
2016-Jul-17 13:32N 38°03' E 010°49'2311.5
2016-Jul-17 11:33N 37°57' E 010°21'1211.3
2016-Jul-17 10:30N 37°54' E 010°06'1111.2
2016-Jul-17 09:33N 37°51' E 009°53'  
Track history (hours):
 
Tides and Currents Weather Stations Pressure Air Temp Water Temp Dewpoint Dewpoint Depression Visibility Wind Speed Wind Dir Waves Ship Positions

Sds Green

Last reported at 2016-Jul-24 00:33 UTC. Time now 2016-Jul-24 01:03 UTC.
Position N 39°38' E 014°12'.

Length 108 m; draft 7.1 m.

Type: Cargo ship. MMSI: 247292200.

Date/timePositionNaut miles runAvg speedWind from/ knotsBaromVisibWave heightAir tempDewpointWater temp
2016-Jul-24 00:33N 39°38' E 014°12'1110.9
2016-Jul-23 23:33N 39°29' E 014°22'2210.9
2016-Jul-23 21:32N 39°13' E 014°40'3210.8
2016-Jul-23 18:33N 38°48' E 015°07'1110.8
2016-Jul-23 17:33N 38°40' E 015°16'1110.8
2016-Jul-23 16:33N 38°32' E 015°25'1110.7
2016-Jul-23 15:33N 38°24' E 015°34'1010.0
2016-Jul-23 14:33N 38°16' E 015°41'9 9.3
2016-Jul-23 13:33N 38°07' E 015°36'1310.3
2016-Jul-23 12:20N 37°55' E 015°41'  
2016-Jul-18 12:20N 37°52' E 015°59'910.9
2016-Jul-18 11:32N 37°52' E 015°48'1010.7
2016-Jul-18 10:33N 37°58' E 015°37'1313.2
2016-Jul-18 09:33N 38°11' E 015°36'8 8.5
2016-Jul-18 08:33N 38°20' E 015°34'1312.6
2016-Jul-18 07:33N 38°20' E 015°18'1312.5
2016-Jul-18 06:33N 38°19' E 015°02'1312.4
2016-Jul-18 05:31N 38°19' E 014°46'3511.8
2016-Jul-18 02:33N 38°19' E 014°01'1211.7
2016-Jul-18 01:33N 38°19' E 013°46'1111.4
2016-Jul-18 00:33N 38°19' E 013°32'1211.7
2016-Jul-17 23:33N 38°19' E 013°17'1211.8
2016-Jul-17 22:33N 38°19' E 013°02'1211.9
2016-Jul-17 21:33N 38°19' E 012°46'9411.7
2016-Jul-17 13:32N 38°03' E 010°49'2311.5
2016-Jul-17 11:33N 37°57' E 010°21'1211.3
2016-Jul-17 10:30N 37°54' E 010°06'1111.2
2016-Jul-17 09:33N 37°51' E 009°53'  

Dump ship's entire track history